馬祖北竿航空站 - ATIS

METAR RCMT 251100Z 04006KT 9999 FEW012 BKN100 23/21 Q1011 NOSIG RMK A2987(T)=

站台狀態:Online
最後更新:2019-05-26 04:45:03